Time;durP1;ratioP1;P1;durP2;ratioP2;P2;SDS_P1;SDS_P2;PMS_P1;PMS_P2;Temp;Humidity;BMP_temperature;BMP_pressure;BME280_temperature;BME280_humidity;BME280_pressure;Samples;Min_cycle;Max_cycle;Signal;HPM_P1;HPM_P2
2022/10/30 00:01:24;;;;;;;7.10;4.70;;;;;;;12.02;83.00;99276.27;24621;1330;3027992;-70
2022/10/30 00:03:53;;;;;;;7.00;3.00;;;;;;;11.91;83.92;99276.15;24588;1332;3050883;-69
2022/10/30 00:06:23;;;;;;;6.90;3.70;;;;;;;12.51;82.64;99280.91;24612;1335;3026539;-69
2022/10/30 00:08:54;;;;;;;7.60;3.80;;;;;;;12.90;80.40;99272.33;24606;1326;3026756;-66
2022/10/30 00:11:23;;;;;;;8.80;3.80;;;;;;;12.58;80.57;99278.13;24581;1331;3028898;-68
2022/10/30 00:13:52;;;;;;;9.40;4.80;;;;;;;12.43;81.20;99272.89;24622;1330;3049492;-64
2022/10/30 00:16:21;;;;;;;7.10;4.30;;;;;;;12.25;82.04;99267.98;24578;1325;3030503;-67
2022/10/30 00:18:51;;;;;;;9.60;4.60;;;;;;;12.03;82.99;99267.04;24579;1330;3054445;-66
2022/10/30 00:21:21;;;;;;;5.00;2.90;;;;;;;11.97;83.84;99260.65;24579;1327;3027445;-69
2022/10/30 00:23:51;;;;;;;5.80;3.10;;;;;;;12.31;83.07;99253.71;24557;1330;3027674;-65
2022/10/30 00:26:21;;;;;;;7.40;4.20;;;;;;;12.40;82.47;99257.27;24611;1323;3053979;-68
2022/10/30 00:28:52;;;;;;;4.90;3.40;;;;;;;12.22;83.07;99254.02;24562;1338;3027248;-67
2022/10/30 00:31:22;;;;;;;6.60;4.00;;;;;;;12.11;83.34;99248.45;24633;1321;3027645;-65
2022/10/30 00:33:51;;;;;;;5.60;3.70;;;;;;;12.02;83.54;99245.89;24543;1329;3025804;-68
2022/10/30 00:36:21;;;;;;;7.20;3.20;;;;;;;12.12;83.17;99243.64;24541;1334;3049456;-70
2022/10/30 00:38:53;;;;;;;6.40;3.50;;;;;;;12.37;82.61;99246.59;24562;1329;3027092;-69
2022/10/30 00:41:23;;;;;;;6.30;3.60;;;;;;;12.69;81.00;99235.86;24536;1336;3026109;-67
2022/10/30 00:43:56;;;;;;;8.40;4.30;;;;;;;12.63;80.55;99244.96;24505;1333;3030884;-67
2022/10/30 00:46:34;;;;;;;6.80;4.00;;;;;;;12.16;82.76;99238.79;24569;1323;3027594;-67
2022/10/30 00:49:12;;;;;;;8.00;4.30;;;;;;;11.98;83.67;99230.89;24522;1330;3050664;-67
2022/10/30 00:51:46;;;;;;;7.50;3.10;;;;;;;11.92;84.29;99240.43;24511;1336;3058103;-66
2022/10/30 00:54:17;;;;;;;6.90;3.30;;;;;;;12.30;83.33;99211.33;24548;1328;3053762;-68
2022/10/30 00:56:46;;;;;;;7.90;3.70;;;;;;;12.61;81.93;99214.71;24606;1330;3027419;-68
2022/10/30 00:59:20;;;;;;;6.40;3.20;;;;;;;12.56;80.93;99213.98;24570;1329;3029092;-65
2022/10/30 01:01:49;;;;;;;8.20;4.60;;;;;;;12.33;81.94;99207.61;24536;1334;3030279;-67
2022/10/30 01:04:19;;;;;;;6.60;4.40;;;;;;;12.06;83.17;99203.16;24573;1336;3028185;-65
2022/10/30 01:06:50;;;;;;;3.90;2.70;;;;;;;11.98;84.41;99203.15;24577;1329;3027769;-66
2022/10/30 01:09:20;;;;;;;5.00;3.40;;;;;;;12.23;83.57;99185.98;24586;1329;3025842;-66
2022/10/30 01:11:49;;;;;;;8.90;3.80;;;;;;;12.60;82.00;99178.52;24579;1325;3027222;-68
2022/10/30 01:14:18;;;;;;;7.40;3.90;;;;;;;12.34;82.47;99175.55;24571;1324;3028734;-69
2022/10/30 01:17:07;;;;;;;7.00;4.00;;;;;;;12.21;83.55;99174.54;24531;1331;3050630;-65
2022/10/30 01:19:43;;;;;;;9.60;4.50;;;;;;;12.00;84.12;99170.23;24582;1331;3057371;-70
2022/10/30 01:22:34;;;;;;;6.40;3.30;;;;;;;11.88;85.31;99169.27;24563;1330;3052553;-65
2022/10/30 01:25:20;;;;;;;7.60;3.30;;;;;;;12.69;82.06;99162.08;24581;1332;3053014;-68
2022/10/30 01:28:43;;;;;;;7.90;4.40;;;;;;;12.83;80.51;99172.48;24544;1331;3052598;-69
2022/10/30 01:31:41;;;;;;;5.90;4.00;;;;;;;12.59;81.40;99178.28;24505;1335;3053901;-68
2022/10/30 01:34:32;;;;;;;10.70;4.90;;;;;;;12.21;82.48;99185.73;24532;1323;3048771;-68
2022/10/30 01:37:19;;;;;;;5.80;2.80;;;;;;;12.12;83.64;99177.78;24513;1333;3068856;-65
2022/10/30 01:39:49;;;;;;;5.40;3.00;;;;;;;12.92;81.07;99176.76;24595;1328;3050923;-65
2022/10/30 01:42:40;;;;;;;5.80;3.60;;;;;;;13.03;79.52;99163.09;24580;1329;3025873;-69
2022/10/30 01:45:27;;;;;;;7.00;3.60;;;;;;;12.61;81.26;99168.27;24526;1325;3053505;-70
2022/10/30 01:48:08;;;;;;;6.60;4.60;;;;;;;12.31;82.47;99158.36;24544;1330;3053585;-66
2022/10/30 01:50:55;;;;;;;7.40;4.00;;;;;;;11.94;84.36;99166.45;24503;1334;3051473;-65
2022/10/30 01:53:31;;;;;;;5.30;3.30;;;;;;;11.99;84.85;99155.57;24549;1333;3054264;-69
2022/10/30 01:56:43;;;;;;;4.10;2.60;;;;;;;12.53;83.02;99167.09;24537;1336;3050751;-68
2022/10/30 01:59:20;;;;;;;7.10;3.80;;;;;;;12.41;82.65;99138.30;24560;1327;3069259;-69
2022/10/30 02:01:49;;;;;;;7.40;4.20;;;;;;;12.47;82.14;99135.77;24559;1333;3049657;-68
2022/10/30 02:04:18;;;;;;;7.10;3.80;;;;;;;12.21;83.15;99137.69;24551;1332;3027818;-70
2022/10/30 02:06:47;;;;;;;9.20;4.10;;;;;;;12.25;82.80;99125.96;24527;1338;3068184;-68
2022/10/30 02:09:17;;;;;;;3.70;2.40;;;;;;;11.92;84.78;99123.00;24613;1338;3027194;-63
2022/10/30 02:11:50;;;;;;;4.40;3.10;;;;;;;12.56;83.29;99117.19;24545;1336;3029933;-66
2022/10/30 02:14:30;;;;;;;10.50;4.00;;;;;;;12.86;81.65;99108.11;24524;1336;3028759;-65
2022/10/30 02:17:00;;;;;;;7.10;3.80;;;;;;;12.83;80.76;99111.46;24583;1329;3053590;-68
2022/10/30 02:19:29;;;;;;;12.50;4.00;;;;;;;12.49;81.95;99115.94;24554;1329;3026056;-63
2022/10/30 02:21:58;;;;;;;7.00;4.60;;;;;;;12.36;82.16;99127.11;24621;1322;3027285;-66
2022/10/30 02:24:29;;;;;;;7.70;3.50;;;;;;;12.14;83.39;99135.91;24548;1329;3053919;-68
2022/10/30 02:26:58;;;;;;;7.50;3.00;;;;;;;12.29;83.34;99130.21;24558;1331;3027346;-68
2022/10/30 02:29:27;;;;;;;5.60;3.20;;;;;;;12.56;82.33;99132.52;24541;1324;3052172;-64
2022/10/30 02:31:56;;;;;;;5.80;3.60;;;;;;;12.89;80.62;99135.46;24571;1331;3027522;-69
2022/10/30 02:34:25;;;;;;;8.60;4.80;;;;;;;12.66;81.44;99138.27;24588;1338;3057527;-66
2022/10/30 02:36:55;;;;;;;7.60;4.40;;;;;;;12.40;82.16;99130.84;24589;1329;3029886;-67
2022/10/30 02:39:24;;;;;;;8.60;4.30;;;;;;;12.12;83.11;99127.38;24605;1331;3026385;-69
2022/10/30 02:41:53;;;;;;;4.70;2.70;;;;;;;12.06;83.89;99126.63;24539;1330;3026116;-69
2022/10/30 02:44:22;;;;;;;5.80;3.30;;;;;;;12.61;82.56;99127.89;24514;1336;3053127;-68
2022/10/30 02:46:52;;;;;;;8.00;4.10;;;;;;;12.86;81.05;99136.02;24538;1334;3026276;-66
2022/10/30 02:49:22;;;;;;;9.20;4.40;;;;;;;12.72;80.50;99130.94;24524;1338;3028377;-68
2022/10/30 02:51:51;;;;;;;9.60;4.50;;;;;;;12.65;80.72;99122.90;24496;1331;3027598;-66
2022/10/30 02:54:19;;;;;;;8.40;4.60;;;;;;;12.30;81.97;99128.71;24515;1331;3051318;-73
2022/10/30 02:56:50;;;;;;;7.20;3.80;;;;;;;12.14;82.61;99125.33;24571;1330;3027676;-66
2022/10/30 02:59:19;;;;;;;6.10;3.30;;;;;;;11.96;83.79;99117.63;24557;1334;3028550;-66
2022/10/30 03:01:50;;;;;;;7.80;4.00;;;;;;;12.43;82.59;99116.89;24625;1337;3026917;-64
2022/10/30 03:04:19;;;;;;;12.40;4.30;;;;;;;12.90;80.56;99110.95;24575;1324;3027396;-67
2022/10/30 03:06:48;;;;;;;10.50;4.70;;;;;;;13.08;79.10;99122.27;24508;1339;3052975;-66
2022/10/30 03:09:18;;;;;;;10.40;4.90;;;;;;;12.73;79.83;99110.28;24507;1334;3026798;-63
2022/10/30 03:11:49;;;;;;;7.90;5.60;;;;;;;12.54;80.56;99103.78;24554;1334;3027323;-65
2022/10/30 03:14:21;;;;;;;7.20;4.50;;;;;;;12.38;81.47;99128.65;24598;1340;3027176;-66
2022/10/30 03:16:51;;;;;;;8.30;4.30;;;;;;;12.71;80.50;99114.30;24544;1330;3027529;-66
2022/10/30 03:19:22;;;;;;;11.10;4.70;;;;;;;12.98;79.07;99111.79;24558;1330;3068506;-63
2022/10/30 03:21:54;;;;;;;9.90;5.10;;;;;;;12.72;79.78;99109.85;24579;1336;3028517;-66
2022/10/30 03:24:24;;;;;;;8.40;5.20;;;;;;;12.44;80.95;99100.52;24522;1338;3027824;-66
2022/10/30 03:26:56;;;;;;;9.00;4.90;;;;;;;12.17;82.15;99105.98;24544;1322;3029307;-63
2022/10/30 03:29:25;;;;;;;7.20;4.20;;;;;;;12.07;82.76;99096.65;24561;1332;3028792;-67
2022/10/30 03:31:54;;;;;;;10.60;4.50;;;;;;;12.54;81.49;99098.02;24581;1332;3057522;-64
2022/10/30 03:34:26;;;;;;;10.80;4.40;;;;;;;12.91;80.66;99101.35;24586;1334;3025896;-66
2022/10/30 03:36:55;;;;;;;7.70;4.40;;;;;;;12.88;79.80;99093.38;24545;1331;3029798;-71
2022/10/30 03:39:24;;;;;;;8.90;5.50;;;;;;;12.53;80.49;99105.25;24524;1332;3029172;-67
2022/10/30 03:41:54;;;;;;;11.90;5.00;;;;;;;12.11;82.71;99101.66;24563;1331;3025950;-66
2022/10/30 03:44:23;;;;;;;8.40;4.30;;;;;;;12.12;83.19;99103.56;24486;1337;3052779;-66
2022/10/30 03:46:52;;;;;;;7.90;4.30;;;;;;;12.51;82.06;99098.39;24551;1333;3027544;-66
2022/10/30 03:49:25;;;;;;;8.30;4.50;;;;;;;12.91;79.85;99103.72;24562;1323;3025840;-66
2022/10/30 03:51:55;;;;;;;7.50;5.00;;;;;;;12.90;79.81;99100.05;24468;1336;3025966;-67
2022/10/30 03:54:25;;;;;;;10.40;6.00;;;;;;;12.81;79.26;99100.55;24516;1330;3030778;-66
2022/10/30 03:56:54;;;;;;;12.50;5.90;;;;;;;12.40;80.75;99096.18;24581;1323;3025917;-66
2022/10/30 03:59:24;;;;;;;10.20;5.10;;;;;;;12.27;81.21;99101.38;24564;1334;3050683;-70
2022/10/30 04:02:07;;;;;;;7.70;3.80;;;;;;;12.24;81.78;99101.98;24585;1331;3068707;-67
2022/10/30 04:04:37;;;;;;;10.70;5.00;;;;;;;12.88;80.15;99099.73;24554;1323;3028780;-69
2022/10/30 04:07:06;;;;;;;6.70;4.20;;;;;;;12.97;78.56;99092.50;24553;1330;3028889;-69
2022/10/30 04:09:36;;;;;;;10.50;5.20;;;;;;;12.98;78.47;99102.95;24530;1336;3026736;-65
2022/10/30 04:12:08;;;;;;;9.10;4.70;;;;;;;12.69;79.41;99106.90;24531;1333;3028645;-69
2022/10/30 04:14:38;;;;;;;9.20;5.30;;;;;;;12.63;78.86;99105.95;24502;1333;3028549;-66
2022/10/30 04:17:07;;;;;;;7.90;4.00;;;;;;;12.23;80.75;99093.95;24549;1329;3028365;-67
2022/10/30 04:19:40;;;;;;;7.70;4.20;;;;;;;12.66;80.36;99106.94;24539;1331;3026346;-67
2022/10/30 04:22:10;;;;;;;8.30;4.60;;;;;;;13.16;78.19;99104.02;24551;1315;3026587;-68
2022/10/30 04:24:39;;;;;;;7.50;4.90;;;;;;;13.07;78.34;99102.47;24531;1336;3026674;-66
2022/10/30 04:27:08;;;;;;;8.50;4.60;;;;;;;12.85;78.42;99103.42;24545;1332;3026159;-66
2022/10/30 04:29:38;;;;;;;13.20;5.60;;;;;;;12.68;79.01;99106.63;24519;1333;3068523;-66
2022/10/30 04:32:07;;;;;;;6.90;4.50;;;;;;;12.37;80.13;99095.56;24614;1331;3026570;-70
2022/10/30 04:34:38;;;;;;;7.10;4.20;;;;;;;12.35;80.72;99093.27;24589;1332;3049468;-66
2022/10/30 04:37:07;;;;;;;8.10;4.40;;;;;;;12.97;78.95;99088.61;24556;1331;3026898;-66
2022/10/30 04:39:38;;;;;;;8.80;4.70;;;;;;;13.39;76.73;99094.23;24602;1332;3025883;-67
2022/10/30 04:42:14;;;;;;;11.80;5.10;;;;;;;13.05;77.17;99081.35;24607;1336;3056031;-69
2022/10/30 04:44:44;;;;;;;13.50;5.30;;;;;;;12.71;78.63;99082.19;24595;1324;3027765;-67
2022/10/30 04:47:16;;;;;;;12.50;6.20;;;;;;;12.70;78.38;99086.46;24558;1330;3025659;-65
2022/10/30 04:49:46;;;;;;;7.70;4.70;;;;;;;12.50;79.23;99088.48;24586;1333;3056472;-68
2022/10/30 04:52:15;;;;;;;8.30;4.90;;;;;;;12.40;79.77;99090.98;24611;1330;3024951;-67
2022/10/30 04:54:45;;;;;;;10.30;5.20;;;;;;;12.84;79.05;99083.79;24579;1333;3048641;-63
2022/10/30 04:57:14;;;;;;;14.00;4.90;;;;;;;13.23;77.59;99085.43;24566;1331;3026766;-65
2022/10/30 04:59:44;;;;;;;10.00;5.20;;;;;;;13.18;76.61;99085.97;24552;1332;3027522;-69
2022/10/30 05:02:13;;;;;;;10.60;5.60;;;;;;;13.01;77.31;99089.57;24612;1323;3027398;-68
2022/10/30 05:04:42;;;;;;;10.20;5.60;;;;;;;12.80;77.56;99090.28;24535;1333;3055923;-64
2022/10/30 05:07:12;;;;;;;8.30;5.50;;;;;;;12.55;78.16;99094.59;24517;1331;3027759;-66
2022/10/30 05:09:41;;;;;;;9.80;4.50;;;;;;;12.42;79.37;99089.61;24573;1326;3025920;-69
2022/10/30 05:12:10;;;;;;;8.90;4.80;;;;;;;12.97;78.24;99097.92;24563;1336;3026491;-66
2022/10/30 05:14:48;;;;;;;9.00;5.20;;;;;;;13.43;75.88;99094.46;24527;1331;3054343;-67
2022/10/30 05:17:17;;;;;;;12.70;5.70;;;;;;;13.24;76.05;99090.43;24541;1323;3027959;-68
2022/10/30 05:19:47;;;;;;;10.10;5.60;;;;;;;13.05;76.52;99095.26;24562;1331;3057675;-65
2022/10/30 05:22:19;;;;;;;9.60;5.50;;;;;;;12.80;77.43;99087.42;24561;1330;3026639;-69
2022/10/30 05:24:48;;;;;;;11.10;5.80;;;;;;;12.53;78.40;99092.42;24696;1330;3027150;-67
2022/10/30 05:27:18;;;;;;;7.80;3.90;;;;;;;12.27;80.09;99071.02;24579;1327;3056847;-68
2022/10/30 05:29:47;;;;;;;10.60;4.90;;;;;;;13.18;78.15;99070.46;24553;1331;3025165;-69
2022/10/30 05:32:16;;;;;;;7.90;4.80;;;;;;;13.54;75.66;99073.73;24618;1331;3028578;-68
2022/10/30 05:34:50;;;;;;;9.90;5.50;;;;;;;13.40;75.34;99063.84;24609;1336;3057492;-70
2022/10/30 05:37:23;;;;;;;10.00;5.10;;;;;;;13.15;75.93;99058.09;25456;1327;3026074;-67
2022/10/30 05:39:52;;;;;;;8.50;5.10;;;;;;;13.08;76.56;99066.14;25457;1322;3026355;-68
2022/10/30 05:42:27;;;;;;;13.70;5.40;;;;;;;12.81;77.19;99097.60;25428;1329;3052151;-71
2022/10/30 05:44:59;;;;;;;14.70;6.50;;;;;;;12.68;77.81;99119.23;25432;1333;3026553;-70
2022/10/30 05:47:28;;;;;;;10.30;4.70;;;;;;;12.51;78.86;99123.89;25422;1330;3025922;-72
2022/10/30 05:49:59;;;;;;;10.20;5.10;;;;;;;13.01;77.78;99115.05;25418;1339;3026915;-69
2022/10/30 05:52:28;;;;;;;12.40;5.60;;;;;;;13.51;76.19;99110.70;25432;1331;3026628;-68
2022/10/30 05:54:57;;;;;;;10.00;5.50;;;;;;;13.46;75.43;99118.29;25458;1330;3027628;-69
2022/10/30 05:57:33;;;;;;;14.20;6.50;;;;;;;13.29;75.59;99101.64;25439;1330;3066858;-69
2022/10/30 06:00:03;;;;;;;13.00;6.30;;;;;;;13.00;76.91;99069.95;25434;1331;3026555;-68
2022/10/30 06:02:33;;;;;;;10.50;6.30;;;;;;;12.50;79.59;99040.67;25435;1330;3049923;-69
2022/10/30 06:05:02;;;;;;;9.60;5.60;;;;;;;12.51;79.85;99055.56;25440;1331;3026135;-67
2022/10/30 06:07:31;;;;;;;11.10;5.00;;;;;;;12.84;79.14;99094.66;25434;1330;3051600;-64
2022/10/30 06:10:00;;;;;;;10.20;4.90;;;;;;;13.39;77.25;99097.23;25429;1323;3026544;-71
2022/10/30 06:12:43;;;;;;;10.80;6.50;;;;;;;13.50;76.22;99109.02;25442;1330;3067863;-70
2022/10/30 06:15:32;;;;;;;11.80;5.20;;;;;;;13.35;76.50;99109.07;25420;1330;3051426;-69
2022/10/30 06:18:02;;;;;;;9.00;5.70;;;;;;;13.00;77.24;99100.20;25437;1337;3027190;-67
2022/10/30 06:20:45;;;;;;;11.80;5.90;;;;;;;12.81;78.78;99122.88;25430;1330;3053114;-71
2022/10/30 06:23:32;;;;;;;14.40;6.20;;;;;;;12.72;78.22;99127.59;25454;1328;3053816;-67
2022/10/30 06:26:08;;;;;;;9.00;4.60;;;;;;;12.62;79.29;99142.38;25416;1331;3051508;-68
2022/10/30 06:28:51;;;;;;;10.40;5.50;;;;;;;13.27;77.91;99132.10;25439;1331;3051301;-72
2022/10/30 06:31:21;;;;;;;13.30;6.90;;;;;;;13.58;76.79;99136.39;25442;1332;3026396;-69
2022/10/30 06:33:50;;;;;;;13.70;6.30;;;;;;;13.53;76.41;99145.58;25434;1330;3027587;-69
2022/10/30 06:36:19;;;;;;;18.10;6.60;;;;;;;13.18;77.11;99135.54;25449;1330;3051466;-73
2022/10/30 06:38:48;;;;;;;15.80;7.20;;;;;;;12.91;78.03;99134.98;25430;1324;3027222;-67
2022/10/30 06:41:19;;;;;;;12.80;6.40;;;;;;;12.69;78.92;99146.46;25425;1329;3026345;-65
2022/10/30 06:44:04;;;;;;;8.20;4.90;;;;;;;12.55;80.30;99135.17;25457;1330;3051329;-69
2022/10/30 06:46:35;;;;;;;12.00;5.80;;;;;;;13.46;77.71;99123.77;25455;1330;3027699;-67
2022/10/30 06:49:04;;;;;;;9.90;6.10;;;;;;;13.84;75.35;99112.88;25425;1333;3025849;-72
2022/10/30 06:51:35;;;;;;;9.70;5.70;;;;;;;13.62;75.90;99116.52;25437;1334;3027687;-69
2022/10/30 06:54:05;;;;;;;12.60;5.90;;;;;;;13.26;77.18;99116.48;25439;1331;3025185;-67
2022/10/30 06:56:48;;;;;;;12.50;6.30;;;;;;;13.30;76.68;99114.09;25445;1330;3051472;-71
2022/10/30 06:59:35;;;;;;;15.80;6.50;;;;;;;12.99;78.00;99112.34;25418;1330;3049403;-71
2022/10/30 07:02:33;;;;;;;9.50;4.80;;;;;;;13.06;77.62;99114.16;25386;1337;3070159;-63
2022/10/30 07:05:07;;;;;;;9.90;5.20;;;;;;;13.71;77.45;99108.45;25442;1330;3049407;-73
2022/10/30 07:07:36;;;;;;;12.30;6.30;;;;;;;13.96;74.99;99103.83;25420;1329;3027486;-70
2022/10/30 07:10:06;;;;;;;17.10;6.50;;;;;;;13.95;75.01;99097.77;25431;1324;3068964;-72
2022/10/30 07:12:54;;;;;;;14.70;6.90;;;;;;;13.69;75.16;99116.21;25464;1330;3050309;-68
2022/10/30 07:15:45;;;;;;;14.90;6.90;;;;;;;13.38;76.29;99111.58;25428;1324;3055684;-69
2022/10/30 07:18:22;;;;;;;13.00;6.70;;;;;;;13.08;77.81;99113.65;25420;1333;3054453;-69
2022/10/30 07:20:55;;;;;;;10.10;5.00;;;;;;;13.17;77.25;99118.36;25442;1323;3027570;-66
2022/10/30 07:23:26;;;;;;;10.70;5.60;;;;;;;13.68;75.90;99106.59;25430;1331;3052603;-66
2022/10/30 07:26:02;;;;;;;13.10;6.10;;;;;;;13.93;75.66;99121.13;25434;1331;3052075;-70
2022/10/30 07:28:38;;;;;;;11.30;6.40;;;;;;;13.98;75.40;99100.64;25426;1330;3048394;-70
2022/10/30 07:31:19;;;;;;;11.20;6.70;;;;;;;13.60;75.81;99115.64;25446;1330;3069956;-70
2022/10/30 07:33:54;;;;;;;14.40;8.00;;;;;;;13.57;75.69;99120.44;25465;1336;3049679;-71
2022/10/30 07:36:41;;;;;;;11.40;6.20;;;;;;;13.44;76.84;99113.73;25436;1326;3057688;-69
2022/10/30 07:39:37;;;;;;;12.20;6.90;;;;;;;13.50;76.34;99107.79;25438;1330;3054158;-71
2022/10/30 07:42:20;;;;;;;10.10;5.70;;;;;;;13.58;76.48;99112.95;25430;1330;3054340;-68
2022/10/30 07:45:09;;;;;;;10.20;5.10;;;;;;;14.19;74.79;99105.83;25427;1337;3051931;-68
2022/10/30 07:47:45;;;;;;;11.40;6.20;;;;;;;14.35;73.92;99098.55;25442;1331;3051921;-65
2022/10/30 07:50:40;;;;;;;10.40;5.80;;;;;;;14.37;73.67;99111.23;25427;1323;3048325;-69
2022/10/30 07:53:09;;;;;;;14.50;6.40;;;;;;;14.18;74.02;99110.19;25425;1332;3027669;-70
2022/10/30 07:55:38;;;;;;;12.70;7.80;;;;;;;14.08;74.30;99106.55;25410;1333;3027412;-68
2022/10/30 07:58:26;;;;;;;11.30;6.30;;;;;;;13.71;75.55;99118.81;25423;1315;3050665;-73
2022/10/30 08:01:12;;;;;;;11.60;4.30;;;;;;;13.77;75.85;99115.31;25428;1331;3067996;-69
2022/10/30 08:03:41;;;;;;;11.40;5.60;;;;;;;14.50;74.65;99105.98;25456;1330;3025280;-69
2022/10/30 08:06:17;;;;;;;12.20;5.70;;;;;;;14.98;71.78;99107.23;25452;1323;3050732;-70
2022/10/30 08:08:46;;;;;;;11.00;5.90;;;;;;;14.92;71.83;99104.27;25419;1330;3026490;-71
2022/10/30 08:11:35;;;;;;;10.30;6.60;;;;;;;14.58;72.73;99118.17;25444;1332;3053886;-66
2022/10/30 08:14:05;;;;;;;12.00;6.60;;;;;;;14.64;72.70;99121.75;25428;1329;3026241;-70
2022/10/30 08:16:34;;;;;;;13.20;7.50;;;;;;;14.65;72.64;99114.95;25444;1330;3026358;-71
2022/10/30 08:19:04;;;;;;;15.40;7.90;;;;;;;14.63;72.71;99121.13;25437;1330;3051504;-70
2022/10/30 08:21:35;;;;;;;16.20;8.30;;;;;;;14.61;73.07;99117.59;25423;1323;3027991;-70
2022/10/30 08:24:13;;;;;;;8.60;4.60;;;;;;;14.65;72.69;99114.08;25439;1330;3068906;-72
2022/10/30 08:26:45;;;;;;;12.50;6.40;;;;;;;15.13;72.04;99113.98;25436;1330;3027300;-66
2022/10/30 08:29:14;;;;;;;11.00;5.80;;;;;;;15.77;69.29;99111.64;25435;1330;3028654;-70
2022/10/30 08:31:47;;;;;;;13.50;7.00;;;;;;;15.82;69.05;99112.85;25455;1333;3025963;-70
2022/10/30 08:34:26;;;;;;;15.20;7.40;;;;;;;15.34;69.84;99113.25;25447;1323;3054336;-71
2022/10/30 08:36:56;;;;;;;15.40;8.20;;;;;;;15.27;69.95;99107.48;25429;1330;3025929;-72
2022/10/30 08:39:26;;;;;;;16.00;7.80;;;;;;;15.04;70.51;99114.35;25442;1329;3025955;-65
2022/10/30 08:42:24;;;;;;;14.20;8.90;;;;;;;15.03;70.24;99115.35;25351;1330;3050631;-66
2022/10/30 08:44:53;;;;;;;13.20;7.10;;;;;;;14.68;71.65;99116.61;25457;1324;3025905;-70
2022/10/30 08:47:25;;;;;;;14.90;7.60;;;;;;;14.51;71.68;99114.35;25460;1322;3027928;-72
2022/10/30 08:49:54;;;;;;;16.70;8.40;;;;;;;14.58;71.52;99111.28;25424;1338;3027196;-75
2022/10/30 08:52:26;;;;;;;14.80;8.90;;;;;;;14.53;71.57;99118.95;25424;1330;3028148;-69
2022/10/30 08:54:58;;;;;;;15.80;7.40;;;;;;;14.40;71.80;99118.79;25453;1330;3026885;-72
2022/10/30 08:57:28;;;;;;;17.00;7.70;;;;;;;14.30;71.44;99125.73;25441;1330;3027429;-71
2022/10/30 08:59:59;;;;;;;13.30;7.40;;;;;;;14.32;71.47;99115.90;25425;1333;3027267;-70
2022/10/30 09:03:06;;;;;;;17.60;7.20;;;;;;;14.33;71.50;99116.64;25444;1330;3049274;-71
2022/10/30 09:05:57;;;;;;;11.30;6.20;;;;;;;14.43;71.44;99113.60;25441;1330;3070292;-72
2022/10/30 09:08:45;;;;;;;13.90;5.80;;;;;;;15.34;69.01;99109.50;25458;1324;3051626;-68
2022/10/30 09:11:28;;;;;;;13.70;6.60;;;;;;;15.75;66.04;99107.88;25435;1330;3056630;-69
2022/10/30 09:14:22;;;;;;;;;;;;;;;15.74;65.31;99117.34;25462;1330;3052618;-70
2022/10/30 09:16:54;;;;;;;14.20;6.80;;;;;;;15.82;64.52;99105.16;25438;1329;3026537;-66
2022/10/30 09:19:24;;;;;;;13.20;7.00;;;;;;;15.75;64.00;99103.67;25425;1323;3027043;-68
2022/10/30 09:21:54;;;;;;;14.80;7.20;;;;;;;15.33;64.84;99096.88;25414;1332;3026487;-69
2022/10/30 09:24:23;;;;;;;9.60;6.00;;;;;;;15.18;65.23;99099.23;25431;1324;3026788;-68
2022/10/30 09:26:53;;;;;;;11.70;6.30;;;;;;;15.07;65.53;99100.04;25460;1330;3052070;-71
2022/10/30 09:29:30;;;;;;;12.10;5.30;;;;;;;15.03;65.41;99107.36;25448;1330;3051321;-73
2022/10/30 09:32:22;;;;;;;8.80;4.90;;;;;;;14.90;65.19;99104.98;25442;1323;3047653;-70
2022/10/30 09:35:02;;;;;;;8.90;4.20;;;;;;;14.88;64.98;99110.62;25454;1330;3068111;-67
2022/10/30 09:37:40;;;;;;;7.60;4.40;;;;;;;14.84;64.46;99105.14;25450;1339;3049661;-73
2022/10/30 09:40:32;;;;;;;9.70;4.60;;;;;;;14.81;64.09;99098.52;25436;1333;3055683;-67
2022/10/30 09:43:13;;;;;;;10.10;4.10;;;;;;;14.93;63.80;99090.80;25449;1329;3053653;-69
2022/10/30 09:45:58;;;;;;;6.70;3.80;;;;;;;15.03;62.59;99096.45;25408;1332;3054073;-66
2022/10/30 09:48:36;;;;;;;8.50;4.00;;;;;;;15.11;60.85;99093.69;25442;1322;3050814;-68
2022/10/30 09:51:18;;;;;;;7.00;3.80;;;;;;;15.23;60.34;99085.25;25444;1323;3052311;-67
2022/10/30 09:54:05;;;;;;;8.40;4.00;;;;;;;15.39;59.31;99087.17;25435;1333;3050984;-68
2022/10/30 09:56:44;;;;;;;8.60;4.10;;;;;;;15.41;59.32;99094.85;25425;1330;3069834;-69
2022/10/30 09:59:24;;;;;;;7.30;3.90;;;;;;;15.28;58.90;99102.13;25448;1328;3050932;-68
2022/10/30 10:02:20;;;;;;;9.00;4.20;;;;;;;15.13;58.39;99097.90;25445;1330;3057601;-73
2022/10/30 10:04:51;;;;;;;8.70;4.50;;;;;;;14.89;58.55;99102.36;25433;1333;3053181;-70
2022/10/30 10:07:45;;;;;;;10.30;4.20;;;;;;;14.89;58.89;99093.63;25426;1333;3053635;-72
2022/10/30 10:10:43;;;;;;;8.10;4.30;;;;;;;14.95;58.24;99104.34;25388;1333;3051562;-69
2022/10/30 10:13:44;;;;;;;10.30;4.20;;;;;;;15.17;57.98;99090.15;25432;1324;3054551;-70
2022/10/30 10:16:21;;;;;;;7.40;4.00;;;;;;;15.36;57.37;99086.57;25416;1330;3048564;-70
2022/10/30 10:19:10;;;;;;;7.70;4.10;;;;;;;15.41;57.31;99091.84;25446;1324;3069956;-71
2022/10/30 10:21:43;;;;;;;7.90;4.00;;;;;;;15.21;57.23;99084.02;25441;1333;3050895;-67
2022/10/30 10:24:21;;;;;;;7.00;4.10;;;;;;;15.20;57.07;99082.17;25418;1333;3026430;-73
2022/10/30 10:27:00;;;;;;;6.90;5.00;;;;;;;14.98;57.17;99080.80;25439;1330;3052995;-66
2022/10/30 10:29:39;;;;;;;8.50;3.90;;;;;;;14.92;57.78;99074.31;25452;1322;3052171;-66
2022/10/30 10:32:37;;;;;;;5.60;4.30;;;;;;;15.15;57.40;99076.45;25415;1330;3050618;-71
2022/10/30 10:35:22;;;;;;;9.90;4.20;;;;;;;15.07;57.68;99068.80;25430;1333;3053210;-72
2022/10/30 10:38:04;;;;;;;9.70;4.20;;;;;;;15.11;57.89;99058.42;25437;1333;3048864;-66
2022/10/30 10:41:05;;;;;;;7.70;4.70;;;;;;;15.25;57.71;99060.21;25433;1330;3069368;-70
2022/10/30 10:43:56;;;;;;;8.30;4.30;;;;;;;15.51;56.80;99055.16;25445;1324;3049558;-67
2022/10/30 10:46:45;;;;;;;9.30;5.20;;;;;;;15.51;56.42;99063.20;25459;1330;3055889;-70
2022/10/30 10:49:23;;;;;;;9.30;4.70;;;;;;;15.51;56.19;99067.52;25452;1322;3052412;-65
2022/10/30 10:52:00;;;;;;;10.80;4.70;;;;;;;15.34;56.63;99053.92;25440;1330;3052217;-72
2022/10/30 10:54:38;;;;;;;8.60;5.40;;;;;;;15.30;57.29;99059.20;25450;1330;3051857;-67
2022/10/30 10:57:28;;;;;;;9.60;5.00;;;;;;;15.22;57.12;99062.20;25425;1334;3053353;-73
2022/10/30 11:00:03;;;;;;;8.70;5.10;;;;;;;15.43;56.62;99045.60;25447;1328;3050505;-67
2022/10/30 11:02:37;;;;;;;10.20;5.00;;;;;;;15.37;56.54;99060.01;25438;1322;3068722;-68
2022/10/30 11:05:12;;;;;;;7.30;4.30;;;;;;;15.42;56.81;99051.28;25446;1322;3026123;-70
2022/10/30 11:07:46;;;;;;;7.60;5.80;;;;;;;15.46;56.76;99044.27;25431;1333;3055618;-72
2022/10/30 11:10:18;;;;;;;10.90;5.50;;;;;;;15.42;56.51;99046.17;25462;1323;3051944;-70
2022/10/30 11:12:50;;;;;;;11.50;6.40;;;;;;;15.46;56.46;99046.52;25466;1327;3052034;-68
2022/10/30 11:18:41;;;;;;;12.10;5.60;;;;;;;15.50;56.12;99060.89;30968;1337;3018440;-71
2022/10/30 11:21:21;;;;;;;9.40;6.10;;;;;;;15.48;56.22;99050.30;24525;1327;3026394;-69
2022/10/30 11:23:50;;;;;;;10.40;5.20;;;;;;;15.52;56.09;99056.56;24479;1340;3051754;-67
2022/10/30 11:26:20;;;;;;;9.00;4.90;;;;;;;15.47;56.51;99058.65;24510;1328;3025887;-69
2022/10/30 11:28:56;;;;;;;8.70;4.70;;;;;;;15.65;56.67;99042.56;24543;1344;3027622;-70
2022/10/30 11:31:39;;;;;;;7.90;4.80;;;;;;;15.61;57.21;99046.84;24083;1340;3052030;-71
2022/10/30 11:34:18;;;;;;;10.50;4.70;;;;;;;15.40;57.69;99055.20;24569;1327;3049672;-72
2022/10/30 11:36:48;;;;;;;10.30;4.10;;;;;;;15.41;58.13;99053.55;24660;1340;3053322;-67
2022/10/30 11:39:28;;;;;;;9.90;4.40;;;;;;;15.57;57.23;99053.91;24543;1340;3025818;-67
2022/10/30 11:42:00;;;;;;;7.70;4.10;;;;;;;15.35;57.41;99061.06;24610;1333;3069127;-67
2022/10/30 11:44:40;;;;;;;9.20;3.80;;;;;;;15.18;58.11;99064.69;24581;1326;3028447;-66
2022/10/30 11:47:10;;;;;;;7.20;4.70;;;;;;;14.96;58.61;99058.91;24537;1325;3056432;-70
2022/10/30 11:49:52;;;;;;;6.50;4.10;;;;;;;15.00;58.59;99059.54;24590;1332;3028597;-67
2022/10/30 11:52:22;;;;;;;7.70;3.80;;;;;;;15.01;58.53;99053.05;24602;1337;3054290;-67
2022/10/30 11:54:57;;;;;;;6.00;4.10;;;;;;;14.85;58.55;99053.24;24499;1320;3029407;-64